createdAt,value
2022-12-16T00:00:05.026Z,30.20
2022-12-16T00:02:31.763Z,30.47
2022-12-16T00:04:58.429Z,31.30
2022-12-16T00:07:24.993Z,29.97
2022-12-16T00:09:51.532Z,33.37
2022-12-16T00:12:18.331Z,35.43
2022-12-16T00:14:44.826Z,35.43
2022-12-16T00:17:11.348Z,40.87
2022-12-16T00:19:37.837Z,39.07
2022-12-16T00:22:04.366Z,42.10
2022-12-16T00:24:31.253Z,46.85
2022-12-16T00:26:57.859Z,38.73
2022-12-16T00:29:24.494Z,38.40
2022-12-16T00:31:51.047Z,44.25
2022-12-16T00:34:17.742Z,42.90
2022-12-16T00:36:44.323Z,37.00
2022-12-16T00:39:11.311Z,38.73
2022-12-16T00:41:37.835Z,38.33
2022-12-16T00:44:04.701Z,40.40
2022-12-16T00:46:31.554Z,38.47
2022-12-16T00:48:58.256Z,38.63
2022-12-16T00:51:24.789Z,36.70
2022-12-16T00:53:51.344Z,40.00
2022-12-16T00:56:20.869Z,40.63
2022-12-16T00:58:47.639Z,38.33
2022-12-16T01:01:14.294Z,38.00
2022-12-16T01:03:41.431Z,39.33
2022-12-16T01:06:12.718Z,40.47
2022-12-16T01:08:39.253Z,45.37
2022-12-16T01:11:06.196Z,46.00
2022-12-16T01:13:33.399Z,45.77
2022-12-16T01:16:01.271Z,50.90
2022-12-16T01:18:28.106Z,46.90
2022-12-16T01:20:54.575Z,42.73
2022-12-16T01:23:21.404Z,43.73
2022-12-16T01:25:49.900Z,39.87
2022-12-16T01:28:16.403Z,48.10
2022-12-16T01:30:42.935Z,44.33
2022-12-16T01:33:09.491Z,46.33
2022-12-16T01:38:22.489Z,45.10
2022-12-16T01:40:48.976Z,46.53
2022-12-16T01:43:16.911Z,49.17
2022-12-16T01:45:43.551Z,43.33
2022-12-16T01:48:16.214Z,47.50
2022-12-16T01:50:42.789Z,44.13
2022-12-16T01:53:09.341Z,49.30
2022-12-16T01:55:38.641Z,51.60
2022-12-16T01:58:16.984Z,48.87
2022-12-16T02:00:43.578Z,46.00
2022-12-16T02:03:10.837Z,45.93
2022-12-16T02:05:41.391Z,54.10
2022-12-16T02:08:12.595Z,49.87
2022-12-16T02:10:47.470Z,46.30
2022-12-16T02:13:13.947Z,44.03
2022-12-16T02:16:00.700Z,52.27
2022-12-16T02:18:46.633Z,48.10
2022-12-16T02:21:18.330Z,51.40
2022-12-16T02:24:03.779Z,49.33
2022-12-16T02:26:48.951Z,58.20
2022-12-16T02:29:34.230Z,47.63
2022-12-16T02:32:06.328Z,51.80
2022-12-16T02:34:51.539Z,47.73
2022-12-16T02:37:33.565Z,51.73
2022-12-16T02:40:01.121Z,54.57
2022-12-16T02:42:31.894Z,57.00
2022-12-16T02:44:58.358Z,56.70
2022-12-16T02:47:24.922Z,59.93
2022-12-16T02:49:52.253Z,53.23
2022-12-16T02:52:19.931Z,55.43
2022-12-16T02:54:47.175Z,55.83
2022-12-16T02:57:25.903Z,55.90
2022-12-16T03:00:01.685Z,50.43
2022-12-16T03:02:28.293Z,59.05
2022-12-16T03:04:57.261Z,58.27
2022-12-16T03:07:26.440Z,56.07
2022-12-16T03:09:53.774Z,53.50
2022-12-16T03:12:21.941Z,52.83
2022-12-16T03:14:50.549Z,54.00
2022-12-16T03:17:18.651Z,54.90
2022-12-16T03:19:49.316Z,50.97
2022-12-16T03:22:20.685Z,53.73
2022-12-16T03:24:47.692Z,55.87
2022-12-16T03:27:14.211Z,52.37
2022-12-16T03:29:51.480Z,51.43
2022-12-16T03:32:24.350Z,51.13
2022-12-16T03:34:53.086Z,51.67
2022-12-16T03:37:22.339Z,57.77
2022-12-16T03:39:51.481Z,47.93
2022-12-16T03:42:18.292Z,54.47
2022-12-16T03:44:46.388Z,53.33
2022-12-16T03:47:15.857Z,52.13
2022-12-16T03:49:45.593Z,51.17
2022-12-16T03:52:12.070Z,51.07
2022-12-16T03:54:38.642Z,52.23
2022-12-16T03:57:06.569Z,53.13
2022-12-16T03:59:34.701Z,56.93
2022-12-16T04:02:01.426Z,51.23
2022-12-16T04:04:28.086Z,57.50
2022-12-16T04:07:13.053Z,53.83
2022-12-16T04:09:39.595Z,56.23
2022-12-16T04:12:24.854Z,51.20
2022-12-16T04:15:09.643Z,52.07
2022-12-16T04:17:54.916Z,53.07
2022-12-16T04:20:41.405Z,56.00
2022-12-16T04:23:27.100Z,51.90
2022-12-16T04:25:53.570Z,57.10
2022-12-16T04:28:20.081Z,54.60
2022-12-16T04:30:46.733Z,57.37
2022-12-16T04:33:32.908Z,53.00
2022-12-16T04:36:17.934Z,61.17
2022-12-16T04:39:03.032Z,61.97
2022-12-16T04:41:48.181Z,56.40
2022-12-16T04:44:33.456Z,58.57
2022-12-16T04:47:18.719Z,59.83
2022-12-16T04:50:04.036Z,52.27
2022-12-16T04:52:49.273Z,55.53
2022-12-16T04:55:34.466Z,55.50
2022-12-16T04:58:20.202Z,54.00
2022-12-16T05:01:05.898Z,60.57
2022-12-16T05:03:51.009Z,57.87
2022-12-16T05:06:36.874Z,56.77
2022-12-16T05:09:23.208Z,58.53
2022-12-16T05:12:08.666Z,61.73
2022-12-16T05:14:53.982Z,55.40
2022-12-16T05:17:39.753Z,55.47
2022-12-16T05:20:24.936Z,59.63
2022-12-16T05:23:10.037Z,53.87
2022-12-16T05:25:55.271Z,53.97
2022-12-16T05:28:40.503Z,58.40
2022-12-16T05:31:25.722Z,57.23
2022-12-16T05:34:11.084Z,59.07
2022-12-16T05:36:56.252Z,58.80
2022-12-16T05:39:41.429Z,58.30
2022-12-16T05:42:26.595Z,56.93
2022-12-16T05:45:11.919Z,52.90
2022-12-16T05:47:58.367Z,55.43
2022-12-16T05:50:43.598Z,60.83
2022-12-16T05:53:28.965Z,59.33
2022-12-16T05:56:14.574Z,62.17
2022-12-16T05:58:59.629Z,61.93
2022-12-16T06:01:44.898Z,60.00
2022-12-16T06:04:30.236Z,53.50
2022-12-16T06:07:15.425Z,53.63
2022-12-16T06:10:00.687Z,59.53
2022-12-16T06:12:45.988Z,57.23
2022-12-16T06:15:31.211Z,59.97
2022-12-16T06:18:16.221Z,58.23
2022-12-16T06:21:01.649Z,54.83
2022-12-16T06:23:46.808Z,61.77
2022-12-16T06:26:32.181Z,58.00
2022-12-16T06:29:17.334Z,57.87
2022-12-16T06:32:02.654Z,58.57
2022-12-16T06:35:07.697Z,57.00
2022-12-16T06:37:52.851Z,60.27
2022-12-16T06:40:38.212Z,58.43
2022-12-16T06:43:23.214Z,57.67
2022-12-16T06:46:08.381Z,55.43
2022-12-16T06:48:53.754Z,59.37
2022-12-16T06:51:39.027Z,56.73
2022-12-16T06:54:24.287Z,56.90
2022-12-16T06:57:09.630Z,54.03
2022-12-16T06:59:54.606Z,63.28
2022-12-16T07:02:40.013Z,54.53
2022-12-16T07:05:25.333Z,52.73
2022-12-16T07:08:10.596Z,56.43
2022-12-16T07:11:02.335Z,57.20
2022-12-16T07:13:58.831Z,62.53
2022-12-16T07:16:44.261Z,71.07
2022-12-16T07:19:29.428Z,63.93
2022-12-16T07:22:14.812Z,63.40
2022-12-16T07:24:59.907Z,59.97
2022-12-16T07:27:45.221Z,63.30
2022-12-16T07:30:30.317Z,64.00
2022-12-16T07:33:15.349Z,69.77
2022-12-16T07:36:03.824Z,79.57
2022-12-16T07:38:49.087Z,71.90
2022-12-16T07:41:34.479Z,64.00
2022-12-16T07:44:22.723Z,62.37
2022-12-16T07:47:07.832Z,72.60
2022-12-16T07:49:53.704Z,70.10
2022-12-16T07:52:40.535Z,80.57
2022-12-16T07:55:25.888Z,82.23
2022-12-16T07:58:11.236Z,65.00
2022-12-16T08:00:56.414Z,68.00
2022-12-16T08:03:41.700Z,65.13
2022-12-16T08:06:27.167Z,65.70
2022-12-16T08:09:12.325Z,70.67
2022-12-16T08:11:57.645Z,73.70
2022-12-16T08:14:42.813Z,75.17
2022-12-16T08:21:21.740Z,70.23
2022-12-16T08:24:06.506Z,71.20
2022-12-16T08:26:51.347Z,78.53
2022-12-16T08:29:44.937Z,80.50
2022-12-16T08:32:30.760Z,70.23
2022-12-16T08:35:15.867Z,70.63
2022-12-16T08:38:00.750Z,78.83
2022-12-16T08:40:45.877Z,71.87
2022-12-16T08:43:31.286Z,76.80
2022-12-16T08:46:16.650Z,79.87
2022-12-16T08:49:01.986Z,79.47
2022-12-16T08:51:47.180Z,86.83
2022-12-16T08:54:32.530Z,79.10
2022-12-16T08:57:17.897Z,85.97
2022-12-16T09:00:02.967Z,84.33
2022-12-16T09:02:48.345Z,79.27
2022-12-16T09:05:33.313Z,83.73
2022-12-16T09:08:19.099Z,90.63
2022-12-16T09:11:04.364Z,79.77
2022-12-16T09:13:49.503Z,89.73
2022-12-16T09:16:34.715Z,85.90
2022-12-16T09:19:19.977Z,100.37
2022-12-16T09:22:05.212Z,92.20
2022-12-16T09:24:50.468Z,115.97
2022-12-16T09:27:45.878Z,94.90
2022-12-16T09:30:31.275Z,90.40
2022-12-16T09:33:16.454Z,94.80
2022-12-16T09:36:01.855Z,101.23
2022-12-16T09:38:46.896Z,93.10
2022-12-16T09:42:18.371Z,88.60
2022-12-16T09:45:06.483Z,98.03
2022-12-16T09:47:51.799Z,86.77
2022-12-16T09:50:39.210Z,85.27
2022-12-16T09:53:25.512Z,99.07
2022-12-16T09:56:11.166Z,87.50
2022-12-16T09:58:59.928Z,82.03
2022-12-16T10:01:45.679Z,88.20
2022-12-16T10:04:30.971Z,87.57
2022-12-16T10:07:19.788Z,87.23
2022-12-16T10:10:16.968Z,88.63
2022-12-16T10:13:05.235Z,90.70
2022-12-16T10:15:50.500Z,95.93
2022-12-16T10:18:55.894Z,86.83
2022-12-16T10:21:47.492Z,89.97
2022-12-16T10:24:41.861Z,90.03
2022-12-16T10:27:32.065Z,92.13
2022-12-16T10:30:17.447Z,88.00
2022-12-16T10:33:06.312Z,88.87
2022-12-16T10:35:56.678Z,99.27
2022-12-16T10:38:51.149Z,102.83
2022-12-16T10:41:56.634Z,92.93
2022-12-16T10:44:41.757Z,99.13
2022-12-16T10:47:28.131Z,98.23
2022-12-16T10:50:17.415Z,88.87
2022-12-16T10:53:14.408Z,90.63
2022-12-16T10:56:37.947Z,87.13
2022-12-16T10:59:24.328Z,93.63
2022-12-16T11:02:33.062Z,91.93
2022-12-16T11:05:37.828Z,85.43
2022-12-16T11:08:23.092Z,80.27
2022-12-16T11:11:08.375Z,84.87
2022-12-16T11:13:54.793Z,88.07
2022-12-16T11:16:44.744Z,88.83
2022-12-16T11:19:40.605Z,79.30
2022-12-16T11:22:31.415Z,82.90
2022-12-16T11:25:32.071Z,88.80
2022-12-16T11:28:35.267Z,79.63
2022-12-16T11:31:32.252Z,74.53
2022-12-16T11:34:18.856Z,76.57
2022-12-16T11:37:04.479Z,80.83
2022-12-16T11:39:53.959Z,87.93
2022-12-16T11:42:40.719Z,79.60
2022-12-16T11:45:30.924Z,74.70
2022-12-16T11:48:19.154Z,77.73
2022-12-16T11:51:09.068Z,80.03
2022-12-16T11:54:00.304Z,78.17
2022-12-16T11:56:52.647Z,80.70
2022-12-16T11:59:56.488Z,75.30
2022-12-16T12:02:45.027Z,83.83
2022-12-16T12:05:31.310Z,72.00
2022-12-16T12:08:19.123Z,73.17
2022-12-16T12:11:07.554Z,76.13
2022-12-16T12:13:53.083Z,69.30
2022-12-16T12:16:47.484Z,74.13
2022-12-16T12:19:56.039Z,67.63
2022-12-16T12:22:52.602Z,68.17
2022-12-16T12:25:43.904Z,67.27
2022-12-16T12:28:58.501Z,72.03
2022-12-16T12:32:06.532Z,65.97
2022-12-16T12:35:01.266Z,73.13
2022-12-16T12:37:50.056Z,65.13
2022-12-16T12:40:40.939Z,77.93
2022-12-16T12:43:38.543Z,72.23
2022-12-16T12:46:46.787Z,73.33
2022-12-16T12:49:38.178Z,83.63
2022-12-16T12:52:38.204Z,78.17
2022-12-16T12:55:28.913Z,77.23
2022-12-16T12:58:15.175Z,74.97
2022-12-16T13:01:06.496Z,74.80
2022-12-16T13:03:56.347Z,75.33
2022-12-16T13:06:41.612Z,77.30
2022-12-16T13:09:45.344Z,72.77
2022-12-16T13:12:30.550Z,72.23
2022-12-16T13:15:21.896Z,70.53
2022-12-16T13:18:33.334Z,69.27
2022-12-16T13:21:19.094Z,71.47
2022-12-16T13:24:04.805Z,69.40
2022-12-16T13:26:51.042Z,74.57
2022-12-16T13:29:39.366Z,69.73
2022-12-16T13:32:30.483Z,72.43
2022-12-16T13:35:19.043Z,86.63
2022-12-16T13:38:14.529Z,78.97
2022-12-16T13:41:18.877Z,83.97
2022-12-16T13:44:05.971Z,73.67
2022-12-16T13:47:17.461Z,73.37
2022-12-16T13:50:09.851Z,73.23
2022-12-16T13:53:11.262Z,80.87
2022-12-16T13:55:59.652Z,80.87
2022-12-16T13:58:59.231Z,81.93
2022-12-16T14:01:50.747Z,84.73
2022-12-16T14:04:45.791Z,76.93
2022-12-16T14:07:33.983Z,70.63
2022-12-16T14:10:19.438Z,78.27
2022-12-16T14:13:24.358Z,69.63
2022-12-16T14:16:18.411Z,71.30
2022-12-16T14:19:15.754Z,70.10
2022-12-16T14:22:18.830Z,68.87
2022-12-16T14:25:04.054Z,73.77
2022-12-16T14:27:51.825Z,69.73
2022-12-16T14:30:39.129Z,73.53
2022-12-16T14:33:43.521Z,73.00
2022-12-16T14:36:38.985Z,73.23
2022-12-16T14:39:28.124Z,220.43
2022-12-16T14:42:13.443Z,656.03
2022-12-16T14:44:58.992Z,271.67
2022-12-16T14:47:45.811Z,108.60
2022-12-16T14:50:47.693Z,100.93
2022-12-16T14:53:33.626Z,76.63
2022-12-16T14:56:48.213Z,93.30
2022-12-16T14:59:34.159Z,74.07
2022-12-16T15:02:45.765Z,122.93
2022-12-16T15:05:32.028Z,89.03
2022-12-16T15:08:17.897Z,74.10
2022-12-16T15:11:03.103Z,65.50
2022-12-16T15:13:48.406Z,70.97
2022-12-16T15:16:35.140Z,64.70
2022-12-16T15:19:22.155Z,69.03
2022-12-16T15:22:07.457Z,67.30
2022-12-16T15:24:56.271Z,69.23
2022-12-16T15:27:53.222Z,74.37
2022-12-16T15:30:57.550Z,68.30
2022-12-16T15:33:44.250Z,72.50
2022-12-16T15:36:49.889Z,70.03
2022-12-16T15:39:43.334Z,65.73
2022-12-16T15:42:43.432Z,86.57
2022-12-16T15:45:35.756Z,73.00
2022-12-16T15:48:29.643Z,70.13
2022-12-16T15:51:14.556Z,191.50
2022-12-16T15:54:02.454Z,98.97
2022-12-16T15:57:01.516Z,73.20
2022-12-16T15:59:47.623Z,72.23
2022-12-16T16:02:34.386Z,74.33
2022-12-16T16:05:19.663Z,82.27
2022-12-16T16:08:05.946Z,70.73
2022-12-16T16:10:51.588Z,76.20
2022-12-16T16:13:37.120Z,72.40
2022-12-16T16:16:22.929Z,72.43
2022-12-16T16:19:08.111Z,70.57
2022-12-16T16:21:53.187Z,70.67
2022-12-16T16:24:38.368Z,69.73
2022-12-16T16:27:27.705Z,65.40
2022-12-16T16:30:12.642Z,70.27
2022-12-16T16:32:57.987Z,68.87
2022-12-16T16:36:00.015Z,72.27
2022-12-16T16:38:45.267Z,65.40
2022-12-16T16:41:32.387Z,64.70
2022-12-16T16:44:19.874Z,67.50
2022-12-16T16:47:05.200Z,64.47
2022-12-16T16:49:52.009Z,69.33
2022-12-16T16:52:38.789Z,62.57
2022-12-16T16:55:24.659Z,63.23
2022-12-16T16:58:09.962Z,63.13
2022-12-16T17:00:55.419Z,66.60
2022-12-16T17:03:41.624Z,62.13
2022-12-16T17:06:27.211Z,66.10
2022-12-16T17:09:12.596Z,64.70
2022-12-16T17:11:57.843Z,68.67
2022-12-16T17:14:43.224Z,65.57
2022-12-16T17:17:28.546Z,66.83
2022-12-16T17:20:13.582Z,59.77
2022-12-16T17:22:58.901Z,65.40
2022-12-16T17:25:43.991Z,69.93
2022-12-16T17:28:30.433Z,66.63
2022-12-16T17:31:15.768Z,64.23
2022-12-16T17:34:00.981Z,67.93
2022-12-16T17:36:47.259Z,68.83
2022-12-16T17:39:32.517Z,71.90
2022-12-16T17:42:17.723Z,63.00
2022-12-16T17:45:06.047Z,64.70
2022-12-16T17:47:53.801Z,61.97
2022-12-16T17:50:39.063Z,68.70
2022-12-16T17:53:24.306Z,66.57
2022-12-16T17:56:09.527Z,62.67
2022-12-16T17:58:55.849Z,68.73
2022-12-16T18:01:41.865Z,68.43
2022-12-16T18:04:27.630Z,68.17
2022-12-16T18:07:15.510Z,74.00
2022-12-16T18:10:00.578Z,65.87
2022-12-16T18:12:45.818Z,73.60
2022-12-16T18:15:31.130Z,81.20
2022-12-16T18:18:16.364Z,73.97
2022-12-16T18:21:01.636Z,67.23
2022-12-16T18:23:50.367Z,68.87
2022-12-16T18:26:35.624Z,73.27
2022-12-16T18:29:20.885Z,69.30
2022-12-16T18:32:06.952Z,70.37
2022-12-16T18:34:52.233Z,65.73
2022-12-16T18:37:37.400Z,72.77
2022-12-16T18:40:22.809Z,70.90
2022-12-16T18:43:08.114Z,69.13
2022-12-16T18:45:55.940Z,72.47
2022-12-16T18:48:41.308Z,67.57
2022-12-16T18:51:26.544Z,72.17
2022-12-16T18:54:11.603Z,71.10
2022-12-16T18:56:56.903Z,71.33
2022-12-16T18:59:42.064Z,70.00
2022-12-16T19:02:27.665Z,73.20
2022-12-16T19:05:12.861Z,79.00
2022-12-16T19:07:58.019Z,73.57
2022-12-16T19:10:43.237Z,75.47
2022-12-16T19:13:31.909Z,71.90
2022-12-16T19:16:20.396Z,75.47
2022-12-16T19:19:05.549Z,74.37
2022-12-16T19:21:56.159Z,74.77
2022-12-16T19:24:42.240Z,70.63
2022-12-16T19:27:27.490Z,80.87
2022-12-16T19:30:12.652Z,75.10
2022-12-16T19:32:58.480Z,73.80
2022-12-16T19:35:43.769Z,72.70
2022-12-16T19:38:32.734Z,69.23
2022-12-16T19:41:17.973Z,74.27
2022-12-16T19:47:09.338Z,71.67
2022-12-16T19:50:13.507Z,71.67
2022-12-16T19:52:58.824Z,69.07
2022-12-16T19:55:43.922Z,74.80
2022-12-16T19:58:29.164Z,71.60
2022-12-16T20:01:14.537Z,69.40
2022-12-16T20:03:59.719Z,69.50
2022-12-16T20:06:45.014Z,76.93
2022-12-16T20:09:30.212Z,81.63
2022-12-16T20:12:15.336Z,77.07
2022-12-16T20:15:00.500Z,71.30
2022-12-16T20:17:45.691Z,80.73
2022-12-16T20:20:30.977Z,70.17
2022-12-16T20:23:16.251Z,71.47
2022-12-16T20:26:01.680Z,77.13
2022-12-16T20:28:46.987Z,81.80
2022-12-16T20:31:32.336Z,82.10
2022-12-16T20:34:17.269Z,74.20
2022-12-16T20:37:02.563Z,70.87
2022-12-16T20:39:52.911Z,80.07
2022-12-16T20:42:41.959Z,76.97
2022-12-16T20:45:27.209Z,80.63
2022-12-16T20:48:12.526Z,80.73
2022-12-16T20:50:57.699Z,74.77
2022-12-16T20:53:43.034Z,73.83
2022-12-16T20:56:28.430Z,77.93
2022-12-16T20:59:13.680Z,74.00
2022-12-16T21:02:22.311Z,77.87
2022-12-16T21:05:04.064Z,71.37
2022-12-16T21:07:49.320Z,75.37
2022-12-16T21:10:34.572Z,81.20
2022-12-16T21:13:30.958Z,85.03
2022-12-16T21:16:17.239Z,83.73
2022-12-16T21:19:02.558Z,71.13
2022-12-16T21:21:47.825Z,82.17
2022-12-16T21:24:33.052Z,77.00
2022-12-16T21:27:18.270Z,72.50
2022-12-16T21:30:08.045Z,78.00
2022-12-16T21:32:53.428Z,78.03
2022-12-16T21:35:38.751Z,75.97
2022-12-16T21:38:30.285Z,75.87
2022-12-16T21:41:15.795Z,76.97
2022-12-16T21:44:00.876Z,82.50
2022-12-16T21:46:46.231Z,93.80
2022-12-16T21:49:31.431Z,93.47
2022-12-16T21:52:16.573Z,85.87
2022-12-16T21:55:01.786Z,80.43
2022-12-16T21:57:46.792Z,84.63
2022-12-16T22:00:32.095Z,79.33
2022-12-16T22:03:17.111Z,84.67
2022-12-16T22:06:02.343Z,77.63
2022-12-16T22:08:47.187Z,82.60
2022-12-16T22:11:33.028Z,82.63
2022-12-16T22:14:18.398Z,84.40
2022-12-16T22:17:05.150Z,80.90
2022-12-16T22:19:56.077Z,77.27
2022-12-16T22:22:42.058Z,80.47
2022-12-16T22:25:27.207Z,81.47
2022-12-16T22:28:12.449Z,82.63
2022-12-16T22:30:57.652Z,89.67
2022-12-16T22:33:42.799Z,84.33
2022-12-16T22:36:29.575Z,85.97
2022-12-16T22:39:14.691Z,80.30
2022-12-16T22:41:59.876Z,87.07
2022-12-16T22:44:45.073Z,87.90
2022-12-16T22:47:30.001Z,85.53
2022-12-16T22:50:15.317Z,82.43
2022-12-16T22:53:00.525Z,82.73
2022-12-16T22:55:45.850Z,80.10
2022-12-16T22:58:31.057Z,87.60
2022-12-16T23:01:16.269Z,90.60
2022-12-16T23:04:01.570Z,87.73
2022-12-16T23:06:46.820Z,81.13
2022-12-16T23:09:32.154Z,83.30
2022-12-16T23:12:17.276Z,91.00
2022-12-16T23:15:02.622Z,88.77
2022-12-16T23:17:47.683Z,93.00
2022-12-16T23:20:33.122Z,103.20
2022-12-16T23:23:18.275Z,94.03
2022-12-16T23:26:13.077Z,88.87
2022-12-16T23:28:58.361Z,79.97
2022-12-16T23:31:43.773Z,90.43
2022-12-16T23:34:29.015Z,87.43
2022-12-16T23:37:14.238Z,91.10
2022-12-16T23:40:04.028Z,86.07
2022-12-16T23:42:48.986Z,89.60
2022-12-16T23:45:34.272Z,91.90
2022-12-16T23:48:20.827Z,87.13
2022-12-16T23:51:05.929Z,93.30
2022-12-16T23:53:51.257Z,89.47
2022-12-16T23:56:37.084Z,95.07
2022-12-16T23:59:22.240Z,88.97
